Gorseinon, United Kingdom
Current Conditions -  °F | °C
As of 8:50 AM on Sunday 21 Dec 2014 (Local Time) from EGOP Reporting Station
Broken Clouds Broken Clouds  
Wind Chill: 50°   Ceiling: 2300
Heat Index: 50°   Visibility: 3mi
Dew Point: 46°   Wind: 31mph
Humidity: 87%   Direction: 250°WSW
Pressure: 30.33"   Gusts: NA
Location:  51.67°N, 4.04°W
Report Text: EGOP 210850Z AUTO 25027KT 5000 // FEW012/// BKN023/// 10/08 Q1027
Loading
Personal Weather Stations






























Interactive Weather Map New forecast layout! Learn more

10-Day Weather Forecast

Advertisements
Track Severe Weather on mobile